Time;durP1;ratioP1;P1;durP2;ratioP2;P2;SDS_P1;SDS_P2;PMS_P1;PMS_P2;Temp;Humidity;BMP_temperature;BMP_pressure;BME280_temperature;BME280_humidity;BME280_pressure;Samples;Min_cycle;Max_cycle;Signal;HPM_P1;HPM_P2
2022/11/09 00:01:31;;;;;;;13.40;5.55;;;10.80;1.00;;;;;;7376711;19;20014;-69
2022/11/09 00:04:05;;;;;;;9.13;5.78;;;10.80;1.00;;;;;;7372915;19;20014;-69
2022/11/09 00:06:36;;;;;;;9.30;6.32;;;10.90;1.00;;;;;;7372808;19;20014;-69
2022/11/09 00:09:08;;;;;;;10.65;5.82;;;10.90;1.00;;;;;;7378489;19;20011;-69
2022/11/09 00:11:39;;;;;;;9.40;5.32;;;10.90;1.00;;;;;;7375633;19;20025;-69
2022/11/09 00:14:08;;;;;;;7.07;5.55;;;10.90;1.00;;;;;;7373519;19;20048;-69
2022/11/09 00:16:38;;;;;;;8.93;5.93;;;10.90;1.00;;;;;;7374687;19;20038;-70
2022/11/09 00:19:12;;;;;;;9.20;5.55;;;11.00;1.00;;;;;;7386087;19;20131;-70
2022/11/09 00:21:41;;;;;;;6.47;5.20;;;11.00;1.00;;;;;;7384171;19;20011;-70
2022/11/09 00:24:12;;;;;;;10.13;5.55;;;11.00;1.00;;;;;;7375338;19;20018;-69
2022/11/09 00:26:42;;;;;;;9.60;5.53;;;11.10;1.00;;;;;;7379413;19;20018;-70
2022/11/09 00:29:12;;;;;;;7.22;4.80;;;11.10;1.00;;;;;;7385337;19;20010;-69
2022/11/09 00:31:42;;;;;;;7.90;5.00;;;11.10;1.00;;;;;;7383829;19;20010;-69
2022/11/09 00:34:14;;;;;;;7.30;4.75;;;11.20;1.00;;;;;;7378889;19;20021;-69
2022/11/09 00:36:44;;;;;;;6.22;4.72;;;11.20;1.00;;;;;;7380674;19;20030;-70
2022/11/09 00:39:14;;;;;;;7.10;5.15;;;11.20;1.00;;;;;;7384387;19;20474;-70
2022/11/09 00:41:43;;;;;;;6.30;5.13;;;11.20;1.00;;;;;;7382284;19;20458;-69
2022/11/09 00:44:13;;;;;;;7.32;5.07;;;11.20;1.00;;;;;;7378282;19;20018;-69
2022/11/09 00:46:43;;;;;;;6.97;4.90;;;11.20;1.00;;;;;;7377231;19;20379;-69
2022/11/09 00:49:16;;;;;;;8.18;4.88;;;11.20;1.00;;;;;;7383197;19;20539;-70
2022/11/09 00:51:45;;;;;;;7.85;5.45;;;11.10;1.00;;;;;;7383906;19;20033;-70
2022/11/09 00:54:16;;;;;;;9.50;5.32;;;11.10;1.00;;;;;;7379023;19;20019;-69
2022/11/09 00:56:46;;;;;;;7.50;5.18;;;11.10;1.00;;;;;;7378385;19;20018;-69
2022/11/09 00:59:16;;;;;;;7.40;5.25;;;11.10;1.00;;;;;;7383652;19;20490;-70
2022/11/09 01:01:45;;;;;;;7.88;5.28;;;11.20;1.00;;;;;;7382649;19;20349;-70
2022/11/09 01:04:18;;;;;;;8.30;5.53;;;11.20;1.00;;;;;;7376584;19;20014;-69
2022/11/09 01:06:48;;;;;;;9.40;5.75;;;11.20;1.00;;;;;;7379249;19;20022;-69
2022/11/09 01:09:18;;;;;;;7.93;5.40;;;11.30;1.00;;;;;;7382617;19;20053;-69
2022/11/09 01:11:47;;;;;;;7.35;5.70;;;11.30;1.00;;;;;;7381811;19;20373;-69
2022/11/09 01:14:17;;;;;;;8.30;5.75;;;11.20;1.00;;;;;;7380381;19;20022;-70
2022/11/09 01:16:47;;;;;;;7.78;5.75;;;11.20;1.00;;;;;;7377328;19;20078;-70
2022/11/09 01:19:19;;;;;;;8.27;5.63;;;11.20;1.00;;;;;;7381969;19;20720;-69
2022/11/09 01:21:49;;;;;;;9.60;6.60;;;11.20;1.00;;;;;;7382710;19;20015;-69
2022/11/09 01:24:19;;;;;;;9.88;6.75;;;11.20;1.00;;;;;;7379152;19;20010;-69
2022/11/09 01:26:49;;;;;;;10.43;6.45;;;11.30;1.00;;;;;;7377106;19;20014;-69
2022/11/09 01:29:19;;;;;;;11.35;7.47;;;11.30;1.00;;;;;;7380332;19;20018;-70
2022/11/09 01:31:50;;;;;;;9.23;6.40;;;11.30;1.00;;;;;;7381842;19;20007;-69
2022/11/09 01:34:22;;;;;;;11.75;6.95;;;11.30;1.00;;;;;;7378913;19;20018;-69
2022/11/09 01:36:53;;;;;;;9.07;6.75;;;11.30;1.00;;;;;;7376881;19;20014;-69
2022/11/09 01:39:23;;;;;;;13.63;6.80;;;11.20;1.00;;;;;;7382274;19;20050;-70
2022/11/09 01:41:53;;;;;;;12.35;6.55;;;11.30;1.00;;;;;;7377979;19;20014;-70
2022/11/09 01:44:23;;;;;;;10.15;6.30;;;11.30;1.00;;;;;;7378283;19;20046;-69
2022/11/09 01:46:56;;;;;;;11.82;7.00;;;11.30;1.00;;;;;;7377458;19;20014;-69
2022/11/09 01:49:39;;;;;;;9.40;5.80;;;11.30;1.00;;;;;;7380045;19;20018;-69
2022/11/09 01:52:12;;;;;;;9.13;6.30;;;11.30;1.00;;;;;;7377365;19;20034;-69
2022/11/09 01:54:45;;;;;;;11.00;6.32;;;11.30;1.00;;;;;;7381042;19;20017;-69
2022/11/09 01:57:20;;;;;;;8.32;6.28;;;11.20;1.00;;;;;;7375666;19;20018;-70
2022/11/09 01:59:56;;;;;;;9.98;6.25;;;11.20;1.00;;;;;;7379341;19;20014;-69
2022/11/09 02:02:26;;;;;;;13.52;6.15;;;11.10;1.00;;;;;;7376540;19;20021;-69
2022/11/09 02:05:02;;;;;;;11.88;5.85;;;11.10;1.00;;;;;;7377696;19;20360;-69
2022/11/09 02:07:32;;;;;;;14.32;7.15;;;11.20;1.00;;;;;;7375827;19;20015;-69
2022/11/09 02:10:08;;;;;;;11.13;6.72;;;11.20;1.00;;;;;;7380078;19;20014;-69
2022/11/09 02:12:38;;;;;;;10.82;7.10;;;11.10;1.00;;;;;;7376525;19;20026;-70
2022/11/09 02:15:10;;;;;;;11.13;6.95;;;11.00;1.00;;;;;;7379790;19;20026;-69
2022/11/09 02:17:42;;;;;;;9.65;5.97;;;10.90;1.00;;;;;;7373504;19;20014;-69
2022/11/09 02:20:16;;;;;;;7.75;5.93;;;10.80;1.00;;;;;;7379617;19;20018;-69
2022/11/09 02:22:47;;;;;;;8.32;5.68;;;10.80;1.90;;;;;;7377200;19;20010;-69
2022/11/09 02:25:17;;;;;;;9.40;6.10;;;10.80;3.10;;;;;;7375321;19;20010;-69
2022/11/09 02:27:48;;;;;;;8.27;5.85;;;10.80;2.60;;;;;;7375175;19;20098;-70
2022/11/09 02:30:20;;;;;;;8.48;5.10;;;10.80;2.80;;;;;;7377847;19;20022;-69
2022/11/09 02:32:50;;;;;;;9.93;5.63;;;10.80;3.20;;;;;;7374593;19;20013;-69
2022/11/09 02:35:23;;;;;;;7.78;5.57;;;10.80;2.60;;;;;;7379216;19;20382;-70
2022/11/09 02:37:52;;;;;;;6.25;5.18;;;10.90;2.90;;;;;;7375624;19;20018;-69
2022/11/09 02:40:27;;;;;;;6.45;4.80;;;11.00;1.00;;;;;;7378226;19;20022;-70
2022/11/09 02:42:58;;;;;;;11.43;5.28;;;11.20;1.00;;;;;;7376418;19;20021;-70
2022/11/09 02:45:29;;;;;;;6.35;4.38;;;11.30;1.00;;;;;;7377020;19;20038;-69
2022/11/09 02:47:58;;;;;;;4.20;3.58;;;11.40;1.00;;;;;;7374830;19;20018;-70
2022/11/09 02:50:31;;;;;;;5.32;4.20;;;11.50;1.00;;;;;;7379315;19;20024;-70
2022/11/09 02:53:01;;;;;;;4.40;3.65;;;11.50;1.00;;;;;;7377132;19;20024;-70
2022/11/09 02:55:31;;;;;;;6.47;3.92;;;11.50;1.00;;;;;;7377553;19;20022;-70
2022/11/09 02:58:01;;;;;;;7.50;4.07;;;11.60;1.00;;;;;;7374643;19;20024;-70
2022/11/09 03:00:30;;;;;;;6.47;3.60;;;11.60;1.00;;;;;;7380663;19;20015;-70
2022/11/09 03:03:00;;;;;;;5.72;3.75;;;11.60;1.00;;;;;;7373309;19;20014;-70
2022/11/09 03:05:33;;;;;;;5.28;3.95;;;11.60;1.00;;;;;;7376688;19;20011;-69
2022/11/09 03:08:03;;;;;;;10.88;4.13;;;11.60;1.00;;;;;;7374274;19;20030;-69
2022/11/09 03:10:33;;;;;;;5.68;3.85;;;11.50;2.10;;;;;;7378798;19;20021;-69
2022/11/09 03:13:03;;;;;;;6.22;4.40;;;11.50;3.20;;;;;;7374389;19;20022;-69
2022/11/09 03:15:34;;;;;;;6.75;3.90;;;11.40;6.50;;;;;;7374835;19;20706;-69
2022/11/09 03:18:03;;;;;;;8.48;4.32;;;11.30;7.90;;;;;;7373555;19;20483;-69
2022/11/09 03:20:36;;;;;;;5.45;3.60;;;11.20;9.70;;;;;;7379498;19;20015;-70
2022/11/09 03:23:06;;;;;;;6.70;4.28;;;11.20;13.50;;;;;;7372618;19;20022;-70
2022/11/09 03:25:35;;;;;;;9.10;4.68;;;11.20;17.00;;;;;;7376037;19;20021;-69
2022/11/09 03:28:07;;;;;;;6.05;4.15;;;11.10;22.00;;;;;;7373278;19;20018;-69
2022/11/09 03:30:37;;;;;;;6.32;4.72;;;11.00;27.00;;;;;;7378368;19;20025;-69
2022/11/09 03:33:11;;;;;;;6.40;4.80;;;10.90;28.70;;;;;;7373313;19;20011;-69
2022/11/09 03:35:43;;;;;;;7.78;4.70;;;10.80;29.40;;;;;;7378056;19;20018;-69
2022/11/09 03:38:13;;;;;;;6.95;4.80;;;10.80;31.30;;;;;;7374566;19;20112;-69
2022/11/09 03:40:43;;;;;;;7.93;5.35;;;10.80;33.40;;;;;;7378623;19;20014;-69
2022/11/09 03:43:13;;;;;;;7.07;5.05;;;10.80;35.20;;;;;;7373591;19;20014;-70
2022/11/09 03:45:43;;;;;;;6.53;5.28;;;10.80;38.30;;;;;;7375597;19;20014;-69
2022/11/09 03:48:12;;;;;;;9.02;5.93;;;10.70;38.20;;;;;;7371545;19;20018;-70
2022/11/09 03:50:45;;;;;;;6.88;5.60;;;10.60;39.80;;;;;;7377986;19;20014;-70
2022/11/09 03:53:15;;;;;;;9.32;6.45;;;10.60;40.90;;;;;;7379761;19;20466;-70
2022/11/09 03:55:45;;;;;;;12.50;5.68;;;10.60;41.80;;;;;;7382983;19;20078;-70
2022/11/09 03:58:14;;;;;;;8.45;6.25;;;10.70;42.60;;;;;;7381147;19;20019;-69
2022/11/09 04:00:44;;;;;;;7.97;5.90;;;10.70;43.50;;;;;;7385378;19;20030;-70
2022/11/09 04:03:14;;;;;;;14.27;6.13;;;10.70;45.10;;;;;;7380191;19;20014;-70
2022/11/09 04:05:46;;;;;;;8.23;6.20;;;10.70;46.00;;;;;;7380287;19;20010;-70
2022/11/09 04:08:16;;;;;;;7.00;5.93;;;10.70;46.60;;;;;;7379927;19;20053;-70
2022/11/09 04:10:46;;;;;;;8.77;5.90;;;10.60;47.60;;;;;;7384462;19;20123;-70
2022/11/09 04:13:16;;;;;;;9.38;5.95;;;10.60;48.70;;;;;;7381295;19;20015;-70
2022/11/09 04:15:46;;;;;;;11.43;5.90;;;10.60;48.30;;;;;;7381877;19;20026;-70
2022/11/09 04:18:17;;;;;;;7.03;5.68;;;10.60;48.90;;;;;;7380578;19;20023;-70
2022/11/09 04:20:50;;;;;;;9.63;6.95;;;10.70;49.90;;;;;;7384800;19;20010;-70
2022/11/09 04:23:20;;;;;;;8.23;6.30;;;10.70;50.10;;;;;;7380832;19;20502;-70
2022/11/09 04:25:50;;;;;;;10.48;6.72;;;10.60;50.00;;;;;;7378775;19;20013;-69
2022/11/09 04:28:20;;;;;;;8.65;6.50;;;10.60;50.40;;;;;;7382309;19;20018;-70
2022/11/09 04:30:50;;;;;;;8.27;6.68;;;10.60;50.50;;;;;;7382572;19;20018;-70
2022/11/09 04:33:20;;;;;;;9.68;6.03;;;10.60;51.30;;;;;;7378571;19;20486;-71
2022/11/09 04:35:53;;;;;;;8.88;6.85;;;10.50;51.20;;;;;;7380190;19;20009;-71
2022/11/09 04:38:23;;;;;;;14.25;6.88;;;10.50;51.50;;;;;;7382745;19;20022;-70
2022/11/09 04:40:52;;;;;;;8.27;6.72;;;10.50;51.60;;;;;;7382993;19;20022;-71
2022/11/09 04:43:22;;;;;;;8.10;6.95;;;10.50;51.40;;;;;;7378585;19;20021;-70
2022/11/09 04:45:52;;;;;;;13.40;8.15;;;10.40;51.20;;;;;;7378191;19;20019;-71
2022/11/09 04:48:22;;;;;;;11.93;7.60;;;10.40;51.60;;;;;;7383315;19;20384;-71
2022/11/09 04:50:59;;;;;;;12.57;7.03;;;10.40;51.20;;;;;;7383954;19;20505;-70
2022/11/09 04:53:30;;;;;;;9.07;7.22;;;10.40;51.60;;;;;;7379260;19;20017;-71
2022/11/09 04:56:00;;;;;;;13.65;8.45;;;10.40;51.50;;;;;;7379259;19;20020;-71
2022/11/09 04:58:30;;;;;;;17.35;8.80;;;10.40;51.50;;;;;;7382446;19;20251;-71
2022/11/09 05:01:04;;;;;;;11.07;8.70;;;10.30;52.10;;;;;;7383458;19;20007;-71
2022/11/09 05:03:34;;;;;;;;;;;10.30;52.40;;;;;;7380026;19;20011;-70
2022/11/09 05:06:30;;;;;;;12.20;9.05;;;10.20;52.70;;;;;;7375148;19;19939;-70
2022/11/09 05:08:57;;;;;;;17.95;9.52;;;10.30;53.80;;;;;;7381933;19;20014;-69
2022/11/09 05:11:27;;;;;;;11.60;9.38;;;10.30;54.80;;;;;;7382556;19;20630;-71
2022/11/09 05:13:57;;;;;;;14.90;10.45;;;10.20;55.00;;;;;;7379402;19;20011;-70
2022/11/09 05:16:27;;;;;;;13.65;8.85;;;10.30;56.00;;;;;;7376313;19;20021;-70
2022/11/09 05:18:57;;;;;;;16.08;8.95;;;10.20;56.20;;;;;;7381499;19;20014;-70
2022/11/09 05:21:29;;;;;;;12.57;8.98;;;10.20;56.60;;;;;;7383634;19;20745;-69
2022/11/09 05:23:59;;;;;;;11.63;9.25;;;10.20;57.40;;;;;;7376736;19;20022;-70
2022/11/09 05:26:31;;;;;;;13.15;9.55;;;10.20;57.20;;;;;;7374580;19;20025;-70
2022/11/09 05:29:02;;;;;;;11.88;8.70;;;10.20;57.60;;;;;;7381411;19;20020;-70
2022/11/09 05:31:32;;;;;;;14.25;9.20;;;10.20;57.50;;;;;;7380407;19;20022;-70
2022/11/09 05:34:02;;;;;;;12.65;9.02;;;10.30;57.70;;;;;;7378556;19;20772;-70
2022/11/09 05:36:35;;;;;;;17.25;8.70;;;10.30;57.70;;;;;;7377541;19;20572;-70
2022/11/09 05:39:05;;;;;;;14.23;9.40;;;10.30;57.80;;;;;;7380499;19;20011;-69
2022/11/09 05:41:34;;;;;;;12.40;7.70;;;10.30;57.70;;;;;;7381924;19;20006;-70
2022/11/09 05:44:04;;;;;;;14.05;9.15;;;10.30;57.80;;;;;;7376563;19;20019;-70
2022/11/09 05:46:34;;;;;;;12.40;8.18;;;10.30;57.90;;;;;;7375011;19;20042;-71
2022/11/09 05:49:04;;;;;;;15.13;8.57;;;10.40;58.20;;;;;;7379805;19;20477;-71
2022/11/09 05:51:36;;;;;;;11.00;8.52;;;10.40;58.10;;;;;;7381892;19;20052;-70
2022/11/09 05:54:06;;;;;;;16.38;8.88;;;10.40;58.50;;;;;;7376685;19;20025;-71
2022/11/09 05:56:36;;;;;;;11.20;8.55;;;10.30;58.40;;;;;;7377165;19;20018;-69
2022/11/09 05:59:06;;;;;;;12.35;7.45;;;10.30;58.50;;;;;;7382041;19;20584;-70
2022/11/09 06:01:36;;;;;;;13.57;8.40;;;10.30;58.60;;;;;;7379843;19;20018;-71
2022/11/09 06:04:06;;;;;;;16.63;8.90;;;10.40;59.20;;;;;;7377836;19;20608;-70
2022/11/09 06:06:38;;;;;;;12.95;9.00;;;10.40;59.50;;;;;;7375454;19;20021;-69
2022/11/09 06:09:08;;;;;;;12.00;8.75;;;10.40;59.50;;;;;;7380567;19;20380;-70
2022/11/09 06:11:38;;;;;;;11.27;9.52;;;10.40;59.60;;;;;;7379841;19;20014;-70
2022/11/09 06:14:08;;;;;;;12.88;8.55;;;10.40;60.60;;;;;;7376007;19;20018;-71
2022/11/09 06:16:38;;;;;;;13.73;8.27;;;10.40;60.50;;;;;;7374616;19;20018;-69
2022/11/09 06:19:08;;;;;;;12.95;8.63;;;10.40;60.60;;;;;;7380529;19;20558;-70
2022/11/09 06:21:40;;;;;;;10.57;8.27;;;10.50;60.90;;;;;;7381355;19;20017;-71
2022/11/09 06:24:10;;;;;;;12.30;8.13;;;10.50;60.90;;;;;;7376373;19;20038;-71
2022/11/09 06:26:40;;;;;;;11.38;7.93;;;10.50;60.90;;;;;;7375381;19;20498;-70
2022/11/09 06:29:11;;;;;;;11.43;8.38;;;10.50;61.00;;;;;;7380564;19;20033;-70
2022/11/09 06:31:41;;;;;;;12.30;8.18;;;10.50;61.40;;;;;;7376998;19;20714;-70
2022/11/09 06:34:11;;;;;;;11.82;8.23;;;10.50;61.90;;;;;;7379173;19;20030;-70
2022/11/09 06:36:44;;;;;;;14.32;8.00;;;10.60;62.10;;;;;;7374254;19;20010;-70
2022/11/09 06:39:13;;;;;;;11.05;8.63;;;10.60;62.10;;;;;;7379955;19;20478;-70
2022/11/09 06:41:43;;;;;;;16.73;9.00;;;10.50;62.00;;;;;;7377851;19;20018;-71
2022/11/09 06:44:16;;;;;;;12.93;8.70;;;10.50;62.60;;;;;;7376576;19;20017;-71
2022/11/09 06:46:46;;;;;;;11.27;8.88;;;10.50;62.50;;;;;;7374625;19;20018;-70
2022/11/09 06:49:16;;;;;;;12.10;9.38;;;10.40;62.20;;;;;;7379974;19;20010;-71
2022/11/09 06:51:49;;;;;;;16.58;10.05;;;10.50;62.80;;;;;;7376459;19;20392;-70
2022/11/09 06:54:18;;;;;;;18.92;10.45;;;10.50;63.20;;;;;;7376359;19;20023;-71
2022/11/09 06:56:49;;;;;;;15.02;10.32;;;10.50;63.00;;;;;;7372671;19;20093;-69
2022/11/09 06:59:19;;;;;;;11.82;9.77;;;10.50;63.20;;;;;;7376792;19;20050;-69
2022/11/09 07:01:48;;;;;;;14.23;9.20;;;10.50;63.20;;;;;;7376894;19;20474;-70
2022/11/09 07:04:18;;;;;;;13.00;9.95;;;10.60;63.40;;;;;;7375647;19;20007;-70
2022/11/09 07:06:51;;;;;;;15.65;10.60;;;10.50;63.20;;;;;;7370030;19;20242;-70
2022/11/09 07:09:21;;;;;;;14.48;10.07;;;10.50;63.00;;;;;;7377045;19;20022;-70
2022/11/09 07:11:50;;;;;;;15.55;11.02;;;10.50;63.00;;;;;;7379860;19;20014;-69
2022/11/09 07:14:20;;;;;;;15.25;11.23;;;10.40;64.00;;;;;;7376043;19;20036;-70
2022/11/09 07:16:50;;;;;;;15.60;10.27;;;10.50;64.40;;;;;;7372141;19;20015;-70
2022/11/09 07:19:20;;;;;;;14.55;11.07;;;10.50;64.50;;;;;;7378876;19;20018;-70
2022/11/09 07:21:52;;;;;;;18.83;10.85;;;10.40;65.70;;;;;;7377993;19;20042;-70
2022/11/09 07:24:22;;;;;;;13.15;10.82;;;10.50;66.00;;;;;;7375277;19;20019;-70
2022/11/09 07:26:52;;;;;;;15.40;11.30;;;10.50;66.20;;;;;;7373269;19;20010;-70
2022/11/09 07:29:22;;;;;;;15.60;11.68;;;10.50;66.10;;;;;;7383460;19;20493;-69
2022/11/09 07:31:52;;;;;;;16.48;12.35;;;10.60;66.50;;;;;;7383001;19;20362;-71
2022/11/09 07:34:22;;;;;;;18.05;11.75;;;10.70;67.00;;;;;;7384340;19;20015;-69
2022/11/09 07:36:55;;;;;;;15.05;11.48;;;10.70;67.20;;;;;;7379474;19;20028;-69
2022/11/09 07:39:24;;;;;;;17.15;11.77;;;10.80;67.60;;;;;;7384830;19;20018;-69
2022/11/09 07:41:55;;;;;;;19.13;12.25;;;10.80;67.70;;;;;;7383938;19;20014;-69
2022/11/09 07:44:24;;;;;;;17.83;11.52;;;10.80;67.80;;;;;;7384005;19;20015;-69
2022/11/09 07:46:54;;;;;;;19.15;12.57;;;10.90;68.40;;;;;;7378570;19;20011;-70
2022/11/09 07:49:24;;;;;;;14.10;10.98;;;10.90;68.80;;;;;;7386153;19;20106;-70
2022/11/09 07:51:57;;;;;;;15.32;10.80;;;10.90;68.80;;;;;;7384150;19;20014;-70
2022/11/09 07:54:27;;;;;;;15.98;11.43;;;10.90;69.00;;;;;;7384595;19;20480;-69
2022/11/09 07:56:56;;;;;;;15.68;10.82;;;11.00;69.40;;;;;;7377305;19;20030;-70
2022/11/09 07:59:26;;;;;;;14.18;10.73;;;11.10;69.60;;;;;;7382162;19;20467;-70
2022/11/09 08:01:56;;;;;;;14.77;11.50;;;11.10;69.70;;;;;;7383465;19;20014;-70
2022/11/09 08:04:26;;;;;;;15.13;10.55;;;11.10;69.90;;;;;;7383908;19;20489;-70
2022/11/09 08:06:59;;;;;;;14.77;10.32;;;11.20;70.00;;;;;;7376498;19;20010;-70
2022/11/09 08:09:29;;;;;;;13.95;9.90;;;11.20;70.10;;;;;;7383764;19;20089;-71
2022/11/09 08:11:59;;;;;;;12.18;8.75;;;11.20;70.10;;;;;;7382915;19;20026;-70
2022/11/09 08:14:29;;;;;;;12.27;9.40;;;11.20;69.90;;;;;;7384629;19;20014;-70
2022/11/09 08:16:59;;;;;;;16.20;12.55;;;11.30;69.80;;;;;;7376579;19;20015;-70
2022/11/09 08:19:28;;;;;;;12.10;9.52;;;11.40;70.10;;;;;;7384060;19;20030;-70
2022/11/09 08:22:01;;;;;;;11.68;9.30;;;11.40;69.90;;;;;;7382044;19;20492;-69
2022/11/09 08:24:31;;;;;;;10.98;9.48;;;11.40;69.90;;;;;;7384293;19;20010;-70
2022/11/09 08:27:01;;;;;;;12.80;9.52;;;11.40;69.80;;;;;;7375260;19;20019;-70
2022/11/09 08:29:31;;;;;;;12.38;9.30;;;11.40;69.50;;;;;;7381340;19;20015;-70
2022/11/09 08:32:01;;;;;;;13.90;9.52;;;11.40;69.00;;;;;;7379554;19;20018;-70
2022/11/09 08:34:30;;;;;;;11.50;9.45;;;11.40;68.80;;;;;;7382454;19;20461;-70
2022/11/09 08:37:04;;;;;;;13.43;8.60;;;11.50;68.60;;;;;;7374414;19;20027;-70
2022/11/09 08:39:34;;;;;;;14.95;9.02;;;11.40;67.50;;;;;;7381655;19;20352;-70
2022/11/09 08:42:03;;;;;;;13.63;9.45;;;11.40;67.00;;;;;;7379801;19;20532;-70
2022/11/09 08:44:33;;;;;;;16.35;9.55;;;11.40;66.90;;;;;;7347949;19;20022;-70
2022/11/09 08:47:03;;;;;;;14.85;9.80;;;11.40;67.00;;;;;;7370684;19;20058;-70
2022/11/09 08:49:33;;;;;;;13.45;10.10;;;11.40;66.90;;;;;;7352404;19;20014;-69
2022/11/09 08:52:06;;;;;;;16.58;10.07;;;11.40;66.90;;;;;;7349883;19;20018;-70
2022/11/09 08:54:37;;;;;;;12.77;9.30;;;11.50;67.00;;;;;;7355091;19;20010;-69
2022/11/09 08:57:07;;;;;;;12.02;9.27;;;11.50;67.10;;;;;;7367800;19;20042;-69
2022/11/09 08:59:37;;;;;;;13.00;9.05;;;11.50;67.00;;;;;;7348982;19;20026;-70
2022/11/09 09:02:07;;;;;;;11.07;8.27;;;11.60;67.10;;;;;;7350840;19;20014;-70
2022/11/09 09:04:37;;;;;;;12.93;10.27;;;11.50;66.10;;;;;;7354464;19;20427;-70
2022/11/09 09:07:10;;;;;;;12.85;8.82;;;11.60;66.10;;;;;;7346881;19;20006;-70
2022/11/09 09:09:40;;;;;;;14.38;10.80;;;11.60;66.20;;;;;;7352624;19;20034;-70
2022/11/09 09:12:11;;;;;;;17.35;10.80;;;11.70;66.40;;;;;;7371445;19;20498;-69
2022/11/09 09:14:41;;;;;;;13.73;9.70;;;11.70;66.20;;;;;;7353399;19;20015;-70
2022/11/09 09:17:11;;;;;;;13.27;9.80;;;11.80;66.00;;;;;;7346623;19;20042;-69
2022/11/09 09:19:41;;;;;;;12.77;9.98;;;11.90;65.70;;;;;;7350649;19;20018;-71
2022/11/09 09:22:21;;;;;;;12.57;9.15;;;11.90;65.00;;;;;;7351167;19;20434;-70
2022/11/09 09:24:51;;;;;;;14.23;7.85;;;11.90;65.00;;;;;;7353820;19;20010;-70
2022/11/09 09:27:20;;;;;;;9.45;7.40;;;11.90;63.50;;;;;;7346277;19;20837;-70
2022/11/09 09:29:50;;;;;;;10.35;7.95;;;11.90;64.10;;;;;;7373860;19;20369;-69
2022/11/09 09:32:20;;;;;;;13.07;8.13;;;12.00;63.40;;;;;;7349354;19;20047;-70
2022/11/09 09:34:50;;;;;;;11.52;8.32;;;12.00;63.50;;;;;;7352237;19;20037;-70
2022/11/09 09:37:23;;;;;;;14.35;8.38;;;12.00;63.80;;;;;;7347041;19;20014;-70
2022/11/09 09:39:52;;;;;;;19.33;8.88;;;12.00;63.40;;;;;;7353255;19;20022;-71
2022/11/09 09:42:29;;;;;;;11.38;8.00;;;12.10;63.70;;;;;;7347732;19;20695;-70
2022/11/09 09:45:03;;;;;;;12.02;7.60;;;12.20;63.50;;;;;;7376169;19;20018;-70
2022/11/09 09:47:47;;;;;;;8.85;6.63;;;12.30;63.20;;;;;;7374320;19;20124;-70
2022/11/09 09:50:22;;;;;;;8.60;6.13;;;12.30;61.30;;;;;;7377659;19;20018;-70
2022/11/09 09:53:01;;;;;;;9.25;6.15;;;12.40;60.90;;;;;;7378147;19;20011;-71
2022/11/09 09:55:56;;;;;;;9.57;6.88;;;12.50;59.70;;;;;;7379588;19;20014;-70
2022/11/09 09:58:28;;;;;;;9.40;5.65;;;12.60;59.20;;;;;;7374568;19;20010;-68
2022/11/09 10:01:06;;;;;;;9.18;6.43;;;12.70;58.30;;;;;;7380581;19;20097;-68
2022/11/09 10:03:36;;;;;;;7.35;5.47;;;12.70;57.30;;;;;;7376115;19;20010;-69
2022/11/09 10:06:17;;;;;;;7.30;5.25;;;12.80;56.30;;;;;;7379201;19;20018;-69
2022/11/09 10:09:00;;;;;;;8.38;5.40;;;12.90;55.80;;;;;;7376871;19;20384;-69
2022/11/09 10:11:38;;;;;;;6.68;5.07;;;13.10;55.20;;;;;;7379121;19;20015;-69
2022/11/09 10:14:45;;;;;;;7.93;5.65;;;13.00;53.30;;;;;;7377498;19;20015;-69
2022/11/09 10:17:27;;;;;;;7.88;4.85;;;13.00;52.00;;;;;;7372996;19;20014;-70
2022/11/09 10:20:08;;;;;;;5.68;3.83;;;13.10;51.00;;;;;;7380058;19;20511;-70
2022/11/09 10:22:50;;;;;;;7.40;5.00;;;13.20;51.90;;;;;;7376452;19;20010;-70
2022/11/09 10:25:26;;;;;;;3.90;3.03;;;13.30;51.70;;;;;;7380016;19;20123;-69
2022/11/09 10:28:18;;;;;;;4.47;3.45;;;13.30;50.30;;;;;;7371994;19;20498;-70
2022/11/09 10:30:49;;;;;;;7.63;4.18;;;13.40;48.40;;;;;;7379502;19;20594;-71
2022/11/09 10:33:21;;;;;;;5.43;3.60;;;13.40;48.20;;;;;;7374369;19;20017;-70
2022/11/09 10:36:04;;;;;;;7.85;4.00;;;13.50;48.60;;;;;;7379585;19;20187;-70
2022/11/09 10:38:41;;;;;;;6.90;3.97;;;13.50;48.50;;;;;;7375117;19;20031;-71
2022/11/09 10:41:17;;;;;;;;;;;13.50;46.40;;;;;;7378900;19;20018;-69
2022/11/09 10:43:47;;;;;;;5.97;4.13;;;13.60;45.60;;;;;;7374860;19;19941;-71
2022/11/09 10:46:17;;;;;;;5.80;4.15;;;13.70;44.50;;;;;;7377851;19;20023;-71
2022/11/09 10:48:47;;;;;;;5.82;4.00;;;13.60;39.60;;;;;;7331739;19;20014;-70
2022/11/09 10:51:34;;;;;;;4.57;3.40;;;13.80;42.50;;;;;;7374163;19;20454;-68
2022/11/09 10:54:17;;;;;;;5.22;4.13;;;13.80;40.30;;;;;;7347090;19;20534;-70
2022/11/09 10:56:52;;;;;;;6.80;4.25;;;13.90;38.80;;;;;;7344545;19;20050;-70
2022/11/09 10:59:47;;;;;;;6.22;4.22;;;14.00;39.00;;;;;;7349663;19;20355;-70
2022/11/09 11:02:42;;;;;;;8.48;4.13;;;14.10;37.90;;;;;;7347750;19;20007;-70
2022/11/09 11:05:36;;;;;;;7.53;4.32;;;14.20;38.90;;;;;;7347039;19;20125;-69
2022/11/09 11:08:22;;;;;;;6.93;4.53;;;14.20;37.80;;;;;;7342746;19;20011;-70
2022/11/09 11:10:52;;;;;;;6.38;4.28;;;14.20;38.40;;;;;;7347669;19;20038;-70
2022/11/09 11:13:44;;;;;;;8.95;4.55;;;14.10;36.40;;;;;;7346645;19;20023;-70
2022/11/09 11:16:26;;;;;;;20.58;14.68;;;14.20;38.30;;;;;;7369774;19;20010;-70
2022/11/09 11:18:56;;;;;;;7.45;5.05;;;14.20;37.20;;;;;;7345928;19;20608;-71
2022/11/09 11:21:27;;;;;;;6.72;4.45;;;14.30;38.10;;;;;;7347624;19;20021;-69
2022/11/09 11:24:24;;;;;;;6.68;4.20;;;14.20;36.70;;;;;;7343279;19;20015;-70
2022/11/09 11:27:00;;;;;;;6.45;4.10;;;14.30;38.20;;;;;;7337549;19;20458;-70
2022/11/09 11:29:44;;;;;;;7.07;4.82;;;14.30;37.00;;;;;;7347804;19;20014;-70
2022/11/09 11:32:17;;;;;;;5.35;4.28;;;14.30;36.60;;;;;;7345386;19;20007;-69
2022/11/09 11:34:48;;;;;;;6.28;4.20;;;14.40;35.00;;;;;;7347256;19;20462;-69
2022/11/09 11:37:45;;;;;;;6.57;4.13;;;14.50;36.80;;;;;;7340604;19;20481;-69
2022/11/09 11:40:21;;;;;;;7.18;4.25;;;14.60;36.30;;;;;;7370018;19;20022;-68
2022/11/09 11:43:16;;;;;;;5.55;3.80;;;14.40;33.90;;;;;;7344436;19;20014;-69
2022/11/09 11:45:55;;;;;;;6.13;4.05;;;14.50;35.90;;;;;;7345846;19;20331;-69
2022/11/09 11:48:57;;;;;;;8.25;4.50;;;14.50;35.00;;;;;;7342276;19;20438;-69
2022/11/09 11:51:36;;;;;;;14.13;6.20;;;14.50;36.40;;;;;;7375145;19;20586;-70
2022/11/09 11:54:16;;;;;;;9.73;5.70;;;14.50;36.30;;;;;;7373615;19;20029;-69
2022/11/09 11:56:50;;;;;;;6.40;4.57;;;14.50;38.90;;;;;;7370052;19;20021;-69
2022/11/09 11:59:47;;;;;;;8.27;4.93;;;14.50;37.10;;;;;;7375543;19;20495;-69
2022/11/09 12:02:49;;;;;;;8.70;4.18;;;14.50;38.70;;;;;;7372467;19;20022;-70
2022/11/09 12:05:54;;;;;;;9.35;4.57;;;14.50;37.70;;;;;;7374845;19;20018;-70
2022/11/09 12:08:30;;;;;;;6.72;4.07;;;14.50;39.70;;;;;;7370766;19;20014;-69
2022/11/09 12:11:09;;;;;;;6.40;4.13;;;14.60;38.60;;;;;;7373621;19;20018;-69
2022/11/09 12:13:59;;;;;;;6.07;3.90;;;14.60;36.80;;;;;;7378291;19;20010;-70
2022/11/09 12:16:38;;;;;;;5.78;4.07;;;14.50;36.70;;;;;;7379729;19;20014;-70
2022/11/09 12:19:33;;;;;;;6.53;4.22;;;14.50;37.50;;;;;;7378925;19;20018;-70
2022/11/09 12:22:12;;;;;;;6.78;4.00;;;14.50;36.80;;;;;;7380735;19;20021;-71
2022/11/09 12:24:49;;;;;;;7.38;4.28;;;14.40;36.70;;;;;;7382918;19;20018;-70
2022/11/09 12:27:40;;;;;;;10.18;4.95;;;14.40;37.60;;;;;;7375384;19;20014;-70
2022/11/09 12:30:16;;;;;;;6.28;4.47;;;14.40;38.30;;;;;;7382217;19;20007;-70
2022/11/09 12:32:52;;;;;;;7.68;5.50;;;14.30;40.90;;;;;;7381113;19;20023;-70
2022/11/09 12:35:33;;;;;;;9.65;6.50;;;14.30;40.90;;;;;;7382348;19;20015;-69
2022/11/09 12:38:06;;;;;;;10.45;5.97;;;14.30;40.40;;;;;;7338514;19;20038;-71
2022/11/09 12:40:40;;;;;;;8.85;4.95;;;14.30;39.90;;;;;;7374528;19;20041;-69
2022/11/09 12:43:18;;;;;;;10.10;5.95;;;14.30;38.30;;;;;;7352739;19;20082;-71
2022/11/09 12:45:51;;;;;;;10.65;5.90;;;14.40;39.00;;;;;;7375077;19;20014;-71
2022/11/09 12:48:25;;;;;;;8.57;5.15;;;14.30;39.20;;;;;;7343630;19;20015;-70
2022/11/09 12:50:59;;;;;;;8.50;4.97;;;14.30;39.60;;;;;;7351122;19;20006;-69
2022/11/09 12:53:32;;;;;;;7.15;5.05;;;14.30;39.60;;;;;;7350786;19;20470;-69
2022/11/09 12:56:04;;;;;;;6.10;4.13;;;14.40;39.40;;;;;;7353038;19;20099;-70
2022/11/09 12:58:36;;;;;;;8.35;4.72;;;14.30;39.80;;;;;;7348129;19;20489;-71
2022/11/09 13:01:08;;;;;;;7.57;4.78;;;14.40;40.90;;;;;;7373475;19;20011;-70
2022/11/09 13:03:42;;;;;;;6.75;4.63;;;14.40;41.60;;;;;;7350602;19;20468;-71
2022/11/09 13:06:21;;;;;;;10.23;5.20;;;14.40;43.40;;;;;;7351450;19;20040;-69
2022/11/09 13:09:03;;;;;;;5.97;4.50;;;14.40;43.60;;;;;;7348827;19;20450;-70
2022/11/09 13:11:39;;;;;;;7.28;4.43;;;14.40;41.90;;;;;;7349096;19;20010;-70
2022/11/09 13:14:37;;;;;;;9.77;5.03;;;14.40;42.30;;;;;;7349989;19;20018;-70